sensor_id;sensor_type;location;lat;lon;timestamp;temperature;humidity
21481;DHT22;10902;48.158;8.634;2022-11-20T00:00:09;0.70;99.90
21481;DHT22;10902;48.158;8.634;2022-11-20T00:02:35;0.80;99.90
21481;DHT22;10902;48.158;8.634;2022-11-20T00:05:00;0.70;99.90
21481;DHT22;10902;48.158;8.634;2022-11-20T00:07:26;0.80;99.90
21481;DHT22;10902;48.158;8.634;2022-11-20T00:09:51;0.80;99.90
21481;DHT22;10902;48.158;8.634;2022-11-20T00:12:17;0.80;99.90
21481;DHT22;10902;48.158;8.634;2022-11-20T00:14:42;0.70;99.90
21481;DHT22;10902;48.158;8.634;2022-11-20T00:17:09;0.70;99.90
21481;DHT22;10902;48.158;8.634;2022-11-20T00:19:34;0.70;99.90
21481;DHT22;10902;48.158;8.634;2022-11-20T00:22:00;0.60;99.90
21481;DHT22;10902;48.158;8.634;2022-11-20T00:24:25;0.70;99.90
21481;DHT22;10902;48.158;8.634;2022-11-20T00:26:51;0.70;99.90
21481;DHT22;10902;48.158;8.634;2022-11-20T00:29:16;0.60;99.90
21481;DHT22;10902;48.158;8.634;2022-11-20T00:31:42;0.60;99.90
21481;DHT22;10902;48.158;8.634;2022-11-20T00:34:08;0.60;99.90
21481;DHT22;10902;48.158;8.634;2022-11-20T00:36:34;0.70;99.90
21481;DHT22;10902;48.158;8.634;2022-11-20T00:39:00;0.70;99.90
21481;DHT22;10902;48.158;8.634;2022-11-20T00:41:27;0.60;99.90
21481;DHT22;10902;48.158;8.634;2022-11-20T00:43:54;0.60;99.90
21481;DHT22;10902;48.158;8.634;2022-11-20T00:46:22;0.60;99.90
21481;DHT22;10902;48.158;8.634;2022-11-20T00:48:48;0.80;99.90
21481;DHT22;10902;48.158;8.634;2022-11-20T00:51:19;0.60;99.90
21481;DHT22;10902;48.158;8.634;2022-11-20T00:53:45;0.50;99.90
21481;DHT22;10902;48.158;8.634;2022-11-20T00:56:13;0.50;99.90
21481;DHT22;10902;48.158;8.634;2022-11-20T00:58:41;0.50;99.90
21481;DHT22;10902;48.158;8.634;2022-11-20T01:01:13;0.60;99.90
21481;DHT22;10902;48.158;8.634;2022-11-20T01:03:42;0.60;99.90
21481;DHT22;10902;48.158;8.634;2022-11-20T01:06:32;0.70;99.90
21481;DHT22;10902;48.158;8.634;2022-11-20T01:09:00;0.70;99.90
21481;DHT22;10902;48.158;8.634;2022-11-20T01:11:29;0.70;99.90
21481;DHT22;10902;48.158;8.634;2022-11-20T01:13:56;0.70;99.90
21481;DHT22;10902;48.158;8.634;2022-11-20T01:16:34;0.70;99.90
21481;DHT22;10902;48.158;8.634;2022-11-20T01:19:03;0.60;99.90
21481;DHT22;10902;48.158;8.634;2022-11-20T01:21:31;0.70;99.90
21481;DHT22;10902;48.158;8.634;2022-11-20T01:23:57;0.70;99.90
21481;DHT22;10902;48.158;8.634;2022-11-20T01:26:30;0.80;99.90
21481;DHT22;10902;48.158;8.634;2022-11-20T01:28:57;1.00;99.90
21481;DHT22;10902;48.158;8.634;2022-11-20T01:31:34;1.00;99.90
21481;DHT22;10902;48.158;8.634;2022-11-20T01:34:02;1.00;99.90
21481;DHT22;10902;48.158;8.634;2022-11-20T01:36:29;1.10;99.90
21481;DHT22;10902;48.158;8.634;2022-11-20T01:39:00;1.30;99.90
21481;DHT22;10902;48.158;8.634;2022-11-20T01:41:28;1.40;99.90
21481;DHT22;10902;48.158;8.634;2022-11-20T01:44:15;1.50;99.90
21481;DHT22;10902;48.158;8.634;2022-11-20T01:47:02;1.50;99.90
21481;DHT22;10902;48.158;8.634;2022-11-20T01:49:42;1.60;99.90
21481;DHT22;10902;48.158;8.634;2022-11-20T01:52:14;1.70;99.90
21481;DHT22;10902;48.158;8.634;2022-11-20T01:54:46;1.80;99.90
21481;DHT22;10902;48.158;8.634;2022-11-20T01:57:13;1.80;99.90
21481;DHT22;10902;48.158;8.634;2022-11-20T01:59:44;1.90;99.90
21481;DHT22;10902;48.158;8.634;2022-11-20T02:02:13;1.80;99.90
21481;DHT22;10902;48.158;8.634;2022-11-20T02:04:39;1.70;99.90
21481;DHT22;10902;48.158;8.634;2022-11-20T02:07:05;1.70;99.90
21481;DHT22;10902;48.158;8.634;2022-11-20T02:09:31;1.80;99.90
21481;DHT22;10902;48.158;8.634;2022-11-20T02:11:57;1.80;99.90
21481;DHT22;10902;48.158;8.634;2022-11-20T02:14:24;1.80;99.90
21481;DHT22;10902;48.158;8.634;2022-11-20T02:16:50;1.90;99.90
21481;DHT22;10902;48.158;8.634;2022-11-20T02:19:42;1.90;99.90
21481;DHT22;10902;48.158;8.634;2022-11-20T02:22:14;2.00;99.90
21481;DHT22;10902;48.158;8.634;2022-11-20T02:24:42;2.10;99.90
21481;DHT22;10902;48.158;8.634;2022-11-20T02:27:11;2.10;99.90
21481;DHT22;10902;48.158;8.634;2022-11-20T02:29:42;2.30;99.90
21481;DHT22;10902;48.158;8.634;2022-11-20T02:32:20;2.30;99.90
21481;DHT22;10902;48.158;8.634;2022-11-20T02:34:46;2.30;99.90
21481;DHT22;10902;48.158;8.634;2022-11-20T02:37:12;2.30;99.90
21481;DHT22;10902;48.158;8.634;2022-11-20T02:39:38;2.40;99.90
21481;DHT22;10902;48.158;8.634;2022-11-20T02:42:04;2.50;99.90
21481;DHT22;10902;48.158;8.634;2022-11-20T02:44:30;2.50;99.90
21481;DHT22;10902;48.158;8.634;2022-11-20T02:46:57;2.60;99.90
21481;DHT22;10902;48.158;8.634;2022-11-20T02:49:24;2.60;99.90
21481;DHT22;10902;48.158;8.634;2022-11-20T02:51:49;2.60;99.90
21481;DHT22;10902;48.158;8.634;2022-11-20T02:54:15;2.70;99.90
21481;DHT22;10902;48.158;8.634;2022-11-20T02:56:41;2.70;99.90
21481;DHT22;10902;48.158;8.634;2022-11-20T02:59:07;2.60;99.90
21481;DHT22;10902;48.158;8.634;2022-11-20T03:01:33;2.60;99.90
21481;DHT22;10902;48.158;8.634;2022-11-20T03:03:58;2.60;99.90
21481;DHT22;10902;48.158;8.634;2022-11-20T03:06:24;2.60;99.90
21481;DHT22;10902;48.158;8.634;2022-11-20T03:08:49;2.50;99.90
21481;DHT22;10902;48.158;8.634;2022-11-20T03:11:15;2.40;99.90
21481;DHT22;10902;48.158;8.634;2022-11-20T03:13:40;2.40;99.90
21481;DHT22;10902;48.158;8.634;2022-11-20T03:16:12;2.30;99.90
21481;DHT22;10902;48.158;8.634;2022-11-20T03:18:39;2.20;99.90
21481;DHT22;10902;48.158;8.634;2022-11-20T03:21:05;2.10;99.90
21481;DHT22;10902;48.158;8.634;2022-11-20T03:23:31;2.10;99.90
21481;DHT22;10902;48.158;8.634;2022-11-20T03:26:17;2.00;99.90
21481;DHT22;10902;48.158;8.634;2022-11-20T03:28:52;2.00;99.90
21481;DHT22;10902;48.158;8.634;2022-11-20T03:31:20;2.00;99.90
21481;DHT22;10902;48.158;8.634;2022-11-20T03:33:46;1.90;99.90
21481;DHT22;10902;48.158;8.634;2022-11-20T03:36:14;1.80;99.90
21481;DHT22;10902;48.158;8.634;2022-11-20T03:38:40;1.80;99.90
21481;DHT22;10902;48.158;8.634;2022-11-20T03:41:18;1.80;99.90
21481;DHT22;10902;48.158;8.634;2022-11-20T03:43:55;1.80;99.90
21481;DHT22;10902;48.158;8.634;2022-11-20T03:46:21;1.80;99.90
21481;DHT22;10902;48.158;8.634;2022-11-20T03:48:47;1.80;99.90
21481;DHT22;10902;48.158;8.634;2022-11-20T03:51:24;1.70;99.90
21481;DHT22;10902;48.158;8.634;2022-11-20T03:53:52;1.60;99.90
21481;DHT22;10902;48.158;8.634;2022-11-20T03:56:20;1.60;99.90
21481;DHT22;10902;48.158;8.634;2022-11-20T03:58:46;1.50;99.90
21481;DHT22;10902;48.158;8.634;2022-11-20T04:01:16;1.40;99.90
21481;DHT22;10902;48.158;8.634;2022-11-20T04:03:43;1.40;99.90
21481;DHT22;10902;48.158;8.634;2022-11-20T04:08:36;1.30;99.90
21481;DHT22;10902;48.158;8.634;2022-11-20T04:13:34;1.30;99.90
21481;DHT22;10902;48.158;8.634;2022-11-20T04:15:59;1.30;99.90
21481;DHT22;10902;48.158;8.634;2022-11-20T04:18:25;1.20;99.90
21481;DHT22;10902;48.158;8.634;2022-11-20T04:20:50;1.20;99.90
21481;DHT22;10902;48.158;8.634;2022-11-20T04:23:16;1.20;99.90
21481;DHT22;10902;48.158;8.634;2022-11-20T04:25:42;1.10;99.90
21481;DHT22;10902;48.158;8.634;2022-11-20T04:28:07;1.10;99.90
21481;DHT22;10902;48.158;8.634;2022-11-20T04:30:33;1.10;99.90
21481;DHT22;10902;48.158;8.634;2022-11-20T04:32:58;1.10;99.90
21481;DHT22;10902;48.158;8.634;2022-11-20T04:35:24;1.10;99.90
21481;DHT22;10902;48.158;8.634;2022-11-20T04:37:51;1.10;99.90
21481;DHT22;10902;48.158;8.634;2022-11-20T04:40:17;1.30;99.90
21481;DHT22;10902;48.158;8.634;2022-11-20T04:42:42;1.40;99.90
21481;DHT22;10902;48.158;8.634;2022-11-20T04:45:08;1.40;99.90
21481;DHT22;10902;48.158;8.634;2022-11-20T04:47:34;1.40;99.90
21481;DHT22;10902;48.158;8.634;2022-11-20T04:49:59;1.40;99.90
21481;DHT22;10902;48.158;8.634;2022-11-20T04:52:25;1.40;99.90
21481;DHT22;10902;48.158;8.634;2022-11-20T04:54:51;1.40;99.90
21481;DHT22;10902;48.158;8.634;2022-11-20T04:57:18;1.40;99.90
21481;DHT22;10902;48.158;8.634;2022-11-20T04:59:44;1.40;99.90
21481;DHT22;10902;48.158;8.634;2022-11-20T05:02:10;1.40;99.90
21481;DHT22;10902;48.158;8.634;2022-11-20T05:04:36;1.40;99.90
21481;DHT22;10902;48.158;8.634;2022-11-20T05:07:01;1.40;99.90
21481;DHT22;10902;48.158;8.634;2022-11-20T05:09:27;1.40;99.90
21481;DHT22;10902;48.158;8.634;2022-11-20T05:11:52;1.40;99.90
21481;DHT22;10902;48.158;8.634;2022-11-20T05:14:18;1.50;99.90
21481;DHT22;10902;48.158;8.634;2022-11-20T05:16:43;1.60;99.90
21481;DHT22;10902;48.158;8.634;2022-11-20T05:19:09;1.60;99.90
21481;DHT22;10902;48.158;8.634;2022-11-20T05:21:35;1.60;99.90
21481;DHT22;10902;48.158;8.634;2022-11-20T05:24:00;1.50;99.90
21481;DHT22;10902;48.158;8.634;2022-11-20T05:26:26;1.50;99.90
21481;DHT22;10902;48.158;8.634;2022-11-20T05:28:51;1.40;99.90
21481;DHT22;10902;48.158;8.634;2022-11-20T05:31:20;1.40;99.90
21481;DHT22;10902;48.158;8.634;2022-11-20T05:33:46;1.30;99.90
21481;DHT22;10902;48.158;8.634;2022-11-20T05:36:13;1.20;99.90
21481;DHT22;10902;48.158;8.634;2022-11-20T05:38:40;1.30;99.90
21481;DHT22;10902;48.158;8.634;2022-11-20T05:41:14;1.40;99.90
21481;DHT22;10902;48.158;8.634;2022-11-20T05:43:42;1.40;99.90
21481;DHT22;10902;48.158;8.634;2022-11-20T05:46:10;1.40;99.90
21481;DHT22;10902;48.158;8.634;2022-11-20T05:48:37;1.50;99.90
21481;DHT22;10902;48.158;8.634;2022-11-20T05:51:05;1.30;99.90
21481;DHT22;10902;48.158;8.634;2022-11-20T05:53:32;1.30;99.90
21481;DHT22;10902;48.158;8.634;2022-11-20T05:56:00;1.20;99.90
21481;DHT22;10902;48.158;8.634;2022-11-20T05:58:27;1.10;99.90
21481;DHT22;10902;48.158;8.634;2022-11-20T06:00:52;1.30;99.90
21481;DHT22;10902;48.158;8.634;2022-11-20T06:03:18;1.30;99.90
21481;DHT22;10902;48.158;8.634;2022-11-20T06:05:44;1.40;99.90
21481;DHT22;10902;48.158;8.634;2022-11-20T06:08:09;1.40;99.90
21481;DHT22;10902;48.158;8.634;2022-11-20T06:10:35;1.40;99.90
21481;DHT22;10902;48.158;8.634;2022-11-20T06:13:00;1.40;99.90
21481;DHT22;10902;48.158;8.634;2022-11-20T06:15:26;1.40;99.90
21481;DHT22;10902;48.158;8.634;2022-11-20T06:17:55;1.30;99.90
21481;DHT22;10902;48.158;8.634;2022-11-20T06:20:21;1.20;99.90
21481;DHT22;10902;48.158;8.634;2022-11-20T06:22:47;1.20;99.90
21481;DHT22;10902;48.158;8.634;2022-11-20T06:25:13;1.10;99.90
21481;DHT22;10902;48.158;8.634;2022-11-20T06:27:39;1.10;99.90
21481;DHT22;10902;48.158;8.634;2022-11-20T06:30:05;1.10;99.90
21481;DHT22;10902;48.158;8.634;2022-11-20T06:32:30;1.10;99.90
21481;DHT22;10902;48.158;8.634;2022-11-20T06:34:56;1.10;99.90
21481;DHT22;10902;48.158;8.634;2022-11-20T06:37:22;1.20;99.90
21481;DHT22;10902;48.158;8.634;2022-11-20T06:39:47;1.10;99.90
21481;DHT22;10902;48.158;8.634;2022-11-20T06:42:13;1.10;99.90
21481;DHT22;10902;48.158;8.634;2022-11-20T06:44:38;1.00;99.90
21481;DHT22;10902;48.158;8.634;2022-11-20T06:47:04;0.90;99.90
21481;DHT22;10902;48.158;8.634;2022-11-20T06:49:29;0.90;99.90
21481;DHT22;10902;48.158;8.634;2022-11-20T06:51:55;0.80;99.90
21481;DHT22;10902;48.158;8.634;2022-11-20T06:54:20;0.90;99.90
21481;DHT22;10902;48.158;8.634;2022-11-20T06:56:47;0.80;99.90
21481;DHT22;10902;48.158;8.634;2022-11-20T06:59:13;0.90;99.90
21481;DHT22;10902;48.158;8.634;2022-11-20T07:01:38;0.90;99.90
21481;DHT22;10902;48.158;8.634;2022-11-20T07:04:04;0.90;99.90
21481;DHT22;10902;48.158;8.634;2022-11-20T07:06:30;0.90;99.90
21481;DHT22;10902;48.158;8.634;2022-11-20T07:08:55;0.90;99.90
21481;DHT22;10902;48.158;8.634;2022-11-20T07:11:21;1.00;99.90
21481;DHT22;10902;48.158;8.634;2022-11-20T07:13:47;1.10;99.90
21481;DHT22;10902;48.158;8.634;2022-11-20T07:16:12;1.00;99.90
21481;DHT22;10902;48.158;8.634;2022-11-20T07:18:38;0.90;99.90
21481;DHT22;10902;48.158;8.634;2022-11-20T07:21:08;1.00;99.90
21481;DHT22;10902;48.158;8.634;2022-11-20T07:23:35;1.00;99.90
21481;DHT22;10902;48.158;8.634;2022-11-20T07:26:05;1.00;99.90
21481;DHT22;10902;48.158;8.634;2022-11-20T07:28:31;1.00;99.90
21481;DHT22;10902;48.158;8.634;2022-11-20T07:30:57;1.00;99.90
21481;DHT22;10902;48.158;8.634;2022-11-20T07:33:22;0.90;99.90
21481;DHT22;10902;48.158;8.634;2022-11-20T07:35:48;0.90;99.90
21481;DHT22;10902;48.158;8.634;2022-11-20T07:38:14;1.00;99.90
21481;DHT22;10902;48.158;8.634;2022-11-20T07:40:39;1.40;99.90
21481;DHT22;10902;48.158;8.634;2022-11-20T07:43:05;1.70;99.90
21481;DHT22;10902;48.158;8.634;2022-11-20T07:45:30;1.80;99.90
21481;DHT22;10902;48.158;8.634;2022-11-20T07:47:56;1.80;99.90
21481;DHT22;10902;48.158;8.634;2022-11-20T07:50:21;1.80;99.90
21481;DHT22;10902;48.158;8.634;2022-11-20T07:52:47;1.90;99.90
21481;DHT22;10902;48.158;8.634;2022-11-20T07:55:13;2.10;99.90
21481;DHT22;10902;48.158;8.634;2022-11-20T07:57:39;2.30;99.90
21481;DHT22;10902;48.158;8.634;2022-11-20T08:00:06;2.60;99.90
21481;DHT22;10902;48.158;8.634;2022-11-20T08:02:36;2.80;99.90
21481;DHT22;10902;48.158;8.634;2022-11-20T08:05:02;3.00;99.90
21481;DHT22;10902;48.158;8.634;2022-11-20T08:07:27;3.00;99.90
21481;DHT22;10902;48.158;8.634;2022-11-20T08:09:53;2.80;99.90
21481;DHT22;10902;48.158;8.634;2022-11-20T08:12:20;2.80;99.90
21481;DHT22;10902;48.158;8.634;2022-11-20T08:15:05;2.60;99.90
21481;DHT22;10902;48.158;8.634;2022-11-20T08:17:31;2.60;99.90
21481;DHT22;10902;48.158;8.634;2022-11-20T08:19:57;2.60;99.90
21481;DHT22;10902;48.158;8.634;2022-11-20T08:22:22;2.60;99.90
21481;DHT22;10902;48.158;8.634;2022-11-20T08:24:48;2.60;99.90
21481;DHT22;10902;48.158;8.634;2022-11-20T08:27:13;2.70;99.90
21481;DHT22;10902;48.158;8.634;2022-11-20T08:29:39;2.70;99.90
21481;DHT22;10902;48.158;8.634;2022-11-20T08:32:05;2.80;99.90
21481;DHT22;10902;48.158;8.634;2022-11-20T08:34:30;2.90;99.90
21481;DHT22;10902;48.158;8.634;2022-11-20T08:36:56;2.90;99.90
21481;DHT22;10902;48.158;8.634;2022-11-20T08:39:21;3.00;99.90
21481;DHT22;10902;48.158;8.634;2022-11-20T08:41:47;3.00;99.90
21481;DHT22;10902;48.158;8.634;2022-11-20T08:44:12;3.20;99.90
21481;DHT22;10902;48.158;8.634;2022-11-20T08:46:40;3.60;99.90
21481;DHT22;10902;48.158;8.634;2022-11-20T08:49:11;3.70;99.90
21481;DHT22;10902;48.158;8.634;2022-11-20T08:51:39;3.70;99.90
21481;DHT22;10902;48.158;8.634;2022-11-20T08:54:06;3.60;99.90
21481;DHT22;10902;48.158;8.634;2022-11-20T08:56:32;3.70;99.90
21481;DHT22;10902;48.158;8.634;2022-11-20T08:58:58;3.70;99.90
21481;DHT22;10902;48.158;8.634;2022-11-20T09:01:27;3.80;99.90
21481;DHT22;10902;48.158;8.634;2022-11-20T09:03:56;4.00;99.90
21481;DHT22;10902;48.158;8.634;2022-11-20T09:06:22;4.40;99.90
21481;DHT22;10902;48.158;8.634;2022-11-20T09:08:54;4.30;99.90
21481;DHT22;10902;48.158;8.634;2022-11-20T09:11:20;4.10;99.90
21481;DHT22;10902;48.158;8.634;2022-11-20T09:13:46;3.90;99.90
21481;DHT22;10902;48.158;8.634;2022-11-20T09:16:12;4.00;99.90
21481;DHT22;10902;48.158;8.634;2022-11-20T09:18:38;4.00;99.90
21481;DHT22;10902;48.158;8.634;2022-11-20T09:21:11;4.10;99.90
21481;DHT22;10902;48.158;8.634;2022-11-20T09:23:39;4.10;99.90
21481;DHT22;10902;48.158;8.634;2022-11-20T09:26:13;4.00;99.90
21481;DHT22;10902;48.158;8.634;2022-11-20T09:28:39;3.80;99.90
21481;DHT22;10902;48.158;8.634;2022-11-20T09:31:11;3.70;99.90
21481;DHT22;10902;48.158;8.634;2022-11-20T09:33:39;3.60;99.90
21481;DHT22;10902;48.158;8.634;2022-11-20T09:36:05;3.60;99.90
21481;DHT22;10902;48.158;8.634;2022-11-20T09:38:30;3.60;99.90
21481;DHT22;10902;48.158;8.634;2022-11-20T09:40:58;3.60;99.90
21481;DHT22;10902;48.158;8.634;2022-11-20T09:46:21;3.70;99.90
21481;DHT22;10902;48.158;8.634;2022-11-20T09:49:02;3.70;99.90
21481;DHT22;10902;48.158;8.634;2022-11-20T09:51:53;3.80;99.90
21481;DHT22;10902;48.158;8.634;2022-11-20T09:54:27;3.80;99.90
21481;DHT22;10902;48.158;8.634;2022-11-20T09:57:00;3.70;99.90
21481;DHT22;10902;48.158;8.634;2022-11-20T09:59:43;3.80;99.90
21481;DHT22;10902;48.158;8.634;2022-11-20T10:07:40;3.80;99.90
21481;DHT22;10902;48.158;8.634;2022-11-20T10:10:19;3.90;99.90
21481;DHT22;10902;48.158;8.634;2022-11-20T10:13:13;3.90;99.90
21481;DHT22;10902;48.158;8.634;2022-11-20T10:24:16;4.00;99.90
21481;DHT22;10902;48.158;8.634;2022-11-20T10:29:35;4.20;99.90
21481;DHT22;10902;48.158;8.634;2022-11-20T10:32:07;4.30;99.90
21481;DHT22;10902;48.158;8.634;2022-11-20T10:34:57;4.30;99.90
21481;DHT22;10902;48.158;8.634;2022-11-20T10:37:28;4.30;99.90
21481;DHT22;10902;48.158;8.634;2022-11-20T10:40:03;4.40;99.90
21481;DHT22;10902;48.158;8.634;2022-11-20T10:42:55;4.40;99.90
21481;DHT22;10902;48.158;8.634;2022-11-20T10:47:51;4.60;99.90
21481;DHT22;10902;48.158;8.634;2022-11-20T10:50:20;4.70;99.90
21481;DHT22;10902;48.158;8.634;2022-11-20T10:55:30;4.60;99.90
21481;DHT22;10902;48.158;8.634;2022-11-20T10:58:03;4.60;99.90
21481;DHT22;10902;48.158;8.634;2022-11-20T11:00:32;4.70;99.90
21481;DHT22;10902;48.158;8.634;2022-11-20T11:02:58;4.70;99.90
21481;DHT22;10902;48.158;8.634;2022-11-20T11:08:38;4.70;99.90
21481;DHT22;10902;48.158;8.634;2022-11-20T11:14:13;4.70;99.90
21481;DHT22;10902;48.158;8.634;2022-11-20T11:16:58;4.70;99.90
21481;DHT22;10902;48.158;8.634;2022-11-20T11:19:24;4.70;99.90
21481;DHT22;10902;48.158;8.634;2022-11-20T11:21:56;4.60;99.90
21481;DHT22;10902;48.158;8.634;2022-11-20T11:24:26;4.60;99.90
21481;DHT22;10902;48.158;8.634;2022-11-20T11:29:24;4.60;99.90
21481;DHT22;10902;48.158;8.634;2022-11-20T11:32:28;4.50;99.90
21481;DHT22;10902;48.158;8.634;2022-11-20T11:35:05;4.70;99.90
21481;DHT22;10902;48.158;8.634;2022-11-20T11:37:36;4.80;99.90
21481;DHT22;10902;48.158;8.634;2022-11-20T11:40:08;4.80;99.90
21481;DHT22;10902;48.158;8.634;2022-11-20T11:42:35;4.80;99.90
21481;DHT22;10902;48.158;8.634;2022-11-20T11:45:06;4.60;99.90
21481;DHT22;10902;48.158;8.634;2022-11-20T11:47:35;4.60;99.90
21481;DHT22;10902;48.158;8.634;2022-11-20T11:50:22;4.70;99.90
21481;DHT22;10902;48.158;8.634;2022-11-20T11:53:09;4.60;99.90
21481;DHT22;10902;48.158;8.634;2022-11-20T11:58:51;5.30;99.90
21481;DHT22;10902;48.158;8.634;2022-11-20T12:01:31;5.90;99.90
21481;DHT22;10902;48.158;8.634;2022-11-20T12:06:57;6.00;99.90
21481;DHT22;10902;48.158;8.634;2022-11-20T12:09:34;6.00;99.90
21481;DHT22;10902;48.158;8.634;2022-11-20T12:12:10;5.90;99.90
21481;DHT22;10902;48.158;8.634;2022-11-20T12:14:43;5.60;99.90
21481;DHT22;10902;48.158;8.634;2022-11-20T12:17:11;5.50;99.90
21481;DHT22;10902;48.158;8.634;2022-11-20T12:19:38;5.50;99.90
21481;DHT22;10902;48.158;8.634;2022-11-20T12:27:51;5.40;99.90
21481;DHT22;10902;48.158;8.634;2022-11-20T12:30:23;5.40;99.90
21481;DHT22;10902;48.158;8.634;2022-11-20T12:33:35;5.50;99.90
21481;DHT22;10902;48.158;8.634;2022-11-20T12:47:49;7.10;99.90
21481;DHT22;10902;48.158;8.634;2022-11-20T12:50:44;7.00;99.90
21481;DHT22;10902;48.158;8.634;2022-11-20T13:07:08;9.70;99.90
21481;DHT22;10902;48.158;8.634;2022-11-20T13:09:42;9.20;99.90
21481;DHT22;10902;48.158;8.634;2022-11-20T13:12:18;8.40;99.90
21481;DHT22;10902;48.158;8.634;2022-11-20T13:18:00;7.80;99.90
21481;DHT22;10902;48.158;8.634;2022-11-20T13:20:27;8.00;99.90
21481;DHT22;10902;48.158;8.634;2022-11-20T13:22:54;7.50;99.90
21481;DHT22;10902;48.158;8.634;2022-11-20T13:25:24;6.70;99.90
21481;DHT22;10902;48.158;8.634;2022-11-20T13:27:51;6.40;99.90
21481;DHT22;10902;48.158;8.634;2022-11-20T13:30:21;6.60;99.90
21481;DHT22;10902;48.158;8.634;2022-11-20T13:35:32;8.40;99.90
21481;DHT22;10902;48.158;8.634;2022-11-20T13:38:07;8.40;99.90
21481;DHT22;10902;48.158;8.634;2022-11-20T13:40:37;9.40;99.90
21481;DHT22;10902;48.158;8.634;2022-11-20T13:43:14;9.40;99.90
21481;DHT22;10902;48.158;8.634;2022-11-20T13:45:41;9.20;99.90
21481;DHT22;10902;48.158;8.634;2022-11-20T13:48:24;8.70;99.90
21481;DHT22;10902;48.158;8.634;2022-11-20T13:51:12;7.70;99.90
21481;DHT22;10902;48.158;8.634;2022-11-20T13:54:03;7.00;99.90
21481;DHT22;10902;48.158;8.634;2022-11-20T13:59:57;6.10;99.90
21481;DHT22;10902;48.158;8.634;2022-11-20T14:02:27;5.90;99.90
21481;DHT22;10902;48.158;8.634;2022-11-20T14:04:54;5.70;99.90
21481;DHT22;10902;48.158;8.634;2022-11-20T14:07:27;5.70;99.90
21481;DHT22;10902;48.158;8.634;2022-11-20T14:09:57;5.60;99.90
21481;DHT22;10902;48.158;8.634;2022-11-20T14:12:31;5.80;99.90
21481;DHT22;10902;48.158;8.634;2022-11-20T14:14:57;6.30;99.90
21481;DHT22;10902;48.158;8.634;2022-11-20T14:17:34;6.30;99.90
21481;DHT22;10902;48.158;8.634;2022-11-20T14:20:06;5.80;99.90
21481;DHT22;10902;48.158;8.634;2022-11-20T14:22:32;5.70;99.90
21481;DHT22;10902;48.158;8.634;2022-11-20T14:27:45;5.50;99.90
21481;DHT22;10902;48.158;8.634;2022-11-20T14:30:18;5.50;99.90
21481;DHT22;10902;48.158;8.634;2022-11-20T14:32:45;5.40;99.90
21481;DHT22;10902;48.158;8.634;2022-11-20T14:35:34;5.30;99.90
21481;DHT22;10902;48.158;8.634;2022-11-20T14:38:01;5.30;99.90
21481;DHT22;10902;48.158;8.634;2022-11-20T14:40:33;5.20;99.90
21481;DHT22;10902;48.158;8.634;2022-11-20T14:43:01;5.20;99.90
21481;DHT22;10902;48.158;8.634;2022-11-20T14:45:27;5.20;99.90
21481;DHT22;10902;48.158;8.634;2022-11-20T14:47:55;5.30;99.90
21481;DHT22;10902;48.158;8.634;2022-11-20T14:50:25;5.80;99.90
21481;DHT22;10902;48.158;8.634;2022-11-20T14:52:58;5.80;99.90
21481;DHT22;10902;48.158;8.634;2022-11-20T14:55:26;5.50;99.90
21481;DHT22;10902;48.158;8.634;2022-11-20T14:57:58;5.20;99.90
21481;DHT22;10902;48.158;8.634;2022-11-20T15:00:24;5.10;99.90
21481;DHT22;10902;48.158;8.634;2022-11-20T15:02:51;5.10;99.90
21481;DHT22;10902;48.158;8.634;2022-11-20T15:05:20;5.00;99.90
21481;DHT22;10902;48.158;8.634;2022-11-20T15:07:52;4.90;99.90
21481;DHT22;10902;48.158;8.634;2022-11-20T15:10:25;4.90;99.90
21481;DHT22;10902;48.158;8.634;2022-11-20T15:12:53;4.80;99.90
21481;DHT22;10902;48.158;8.634;2022-11-20T15:17:58;4.70;99.90
21481;DHT22;10902;48.158;8.634;2022-11-20T15:20:26;4.70;99.90
21481;DHT22;10902;48.158;8.634;2022-11-20T15:22:52;4.70;99.90
21481;DHT22;10902;48.158;8.634;2022-11-20T15:25:18;4.70;99.90
21481;DHT22;10902;48.158;8.634;2022-11-20T15:27:45;4.60;99.90
21481;DHT22;10902;48.158;8.634;2022-11-20T15:30:17;4.50;99.90
21481;DHT22;10902;48.158;8.634;2022-11-20T15:32:44;4.50;99.90
21481;DHT22;10902;48.158;8.634;2022-11-20T15:35:10;4.50;99.90
21481;DHT22;10902;48.158;8.634;2022-11-20T15:37:37;4.50;99.90
21481;DHT22;10902;48.158;8.634;2022-11-20T15:40:05;4.40;99.90
21481;DHT22;10902;48.158;8.634;2022-11-20T15:42:31;4.30;99.90
21481;DHT22;10902;48.158;8.634;2022-11-20T15:44:57;4.30;99.90
21481;DHT22;10902;48.158;8.634;2022-11-20T15:47:27;4.20;99.90
21481;DHT22;10902;48.158;8.634;2022-11-20T15:49:53;4.20;99.90
21481;DHT22;10902;48.158;8.634;2022-11-20T15:52:19;4.10;99.90
21481;DHT22;10902;48.158;8.634;2022-11-20T15:54:44;4.10;99.90
21481;DHT22;10902;48.158;8.634;2022-11-20T15:57:10;4.10;99.90
21481;DHT22;10902;48.158;8.634;2022-11-20T15:59:35;4.10;99.90
21481;DHT22;10902;48.158;8.634;2022-11-20T16:02:12;4.10;99.90
21481;DHT22;10902;48.158;8.634;2022-11-20T16:04:38;4.00;99.90
21481;DHT22;10902;48.158;8.634;2022-11-20T16:07:04;4.00;99.90
21481;DHT22;10902;48.158;8.634;2022-11-20T16:09:30;4.00;99.90
21481;DHT22;10902;48.158;8.634;2022-11-20T16:11:55;3.90;99.90
21481;DHT22;10902;48.158;8.634;2022-11-20T16:14:23;3.90;99.90
21481;DHT22;10902;48.158;8.634;2022-11-20T16:17:09;3.90;99.90
21481;DHT22;10902;48.158;8.634;2022-11-20T16:19:34;3.80;99.90
21481;DHT22;10902;48.158;8.634;2022-11-20T16:22:00;3.80;99.90
21481;DHT22;10902;48.158;8.634;2022-11-20T16:24:29;3.70;99.90
21481;DHT22;10902;48.158;8.634;2022-11-20T16:26:56;3.70;99.90
21481;DHT22;10902;48.158;8.634;2022-11-20T16:29:24;3.60;99.90
21481;DHT22;10902;48.158;8.634;2022-11-20T16:31:49;3.50;99.90
21481;DHT22;10902;48.158;8.634;2022-11-20T16:34:16;3.50;99.90
21481;DHT22;10902;48.158;8.634;2022-11-20T16:36:43;3.50;99.90
21481;DHT22;10902;48.158;8.634;2022-11-20T16:39:11;3.50;99.90
21481;DHT22;10902;48.158;8.634;2022-11-20T16:41:37;3.50;99.90
21481;DHT22;10902;48.158;8.634;2022-11-20T16:44:07;3.50;99.90
21481;DHT22;10902;48.158;8.634;2022-11-20T16:46:33;3.50;99.90
21481;DHT22;10902;48.158;8.634;2022-11-20T16:49:04;3.50;99.90
21481;DHT22;10902;48.158;8.634;2022-11-20T16:51:33;3.50;99.90
21481;DHT22;10902;48.158;8.634;2022-11-20T16:54:07;3.40;99.90
21481;DHT22;10902;48.158;8.634;2022-11-20T16:56:33;3.40;99.90
21481;DHT22;10902;48.158;8.634;2022-11-20T16:59:01;3.40;99.90
21481;DHT22;10902;48.158;8.634;2022-11-20T17:01:27;3.30;99.90
21481;DHT22;10902;48.158;8.634;2022-11-20T17:03:59;3.30;99.90
21481;DHT22;10902;48.158;8.634;2022-11-20T17:06:27;3.20;99.90
21481;DHT22;10902;48.158;8.634;2022-11-20T17:08:54;3.20;99.90
21481;DHT22;10902;48.158;8.634;2022-11-20T17:11:20;3.30;99.90
21481;DHT22;10902;48.158;8.634;2022-11-20T17:13:46;3.30;99.90
21481;DHT22;10902;48.158;8.634;2022-11-20T17:16:17;3.30;99.90
21481;DHT22;10902;48.158;8.634;2022-11-20T17:18:43;3.30;99.90
21481;DHT22;10902;48.158;8.634;2022-11-20T17:21:10;3.30;99.90
21481;DHT22;10902;48.158;8.634;2022-11-20T17:23:41;3.30;99.90
21481;DHT22;10902;48.158;8.634;2022-11-20T17:26:09;3.40;99.90